Time,TemperatureF,DewpointF,PressureIn,WindDirection,WindDirectionDegrees,WindSpeedMPH,WindSpeedGustMPH,Humidity,HourlyPrecipIn,Conditions,Clouds,dailyrainin,SoftwareType,DateUTC
2013-01-08 00:11:00,27.9,25.0,30.04,South,188,2.0,6.0,90,0.00,,,0.00,weatherlink.com 1.10,2013-01-08 06:11:00,
2013-01-08 00:26:00,28.0,26.0,30.04,South,188,1.0,5.0,90,0.00,,,0.00,weatherlink.com 1.10,2013-01-08 06:26:00,
2013-01-08 00:41:00,28.2,26.0,30.04,South,178,4.0,6.0,90,0.00,,,0.00,weatherlink.com 1.10,2013-01-08 06:41:00,
2013-01-08 00:56:00,27.8,25.0,30.04,SSW,194,2.0,5.0,90,0.00,,,0.00,weatherlink.com 1.10,2013-01-08 06:56:00,
2013-01-08 01:11:00,28.1,26.0,30.05,SSW,198,2.0,5.0,91,0.00,,,0.00,weatherlink.com 1.10,2013-01-08 07:11:00,
2013-01-08 01:26:00,28.0,26.0,30.05,South,190,1.0,4.0,90,0.00,,,0.00,weatherlink.com 1.10,2013-01-08 07:26:00,
2013-01-08 01:41:00,28.0,26.0,30.05,South,186,0.0,3.0,90,0.00,,,0.00,weatherlink.com 1.10,2013-01-08 07:41:00,
2013-01-08 01:56:00,27.7,26.0,30.05,SSE,165,1.0,4.0,91,0.00,,,0.00,weatherlink.com 1.10,2013-01-08 07:56:00,
2013-01-08 02:11:00,27.7,26.0,30.05,South,188,0.0,3.0,91,0.00,,,0.00,weatherlink.com 1.10,2013-01-08 08:11:00,
2013-01-08 02:26:00,27.3,25.0,30.05,South,171,3.0,4.0,91,0.00,,,0.00,weatherlink.com 1.10,2013-01-08 08:26:00,
2013-01-08 02:41:00,27.2,25.0,30.05,South,186,2.0,5.0,91,0.00,,,0.00,weatherlink.com 1.10,2013-01-08 08:41:00,
2013-01-08 02:56:00,27.4,25.0,30.05,SSW,201,4.0,5.0,92,0.00,,,0.00,weatherlink.com 1.10,2013-01-08 08:56:00,
2013-01-08 03:11:00,27.7,26.0,30.05,South,170,3.0,4.0,92,0.00,,,0.00,weatherlink.com 1.10,2013-01-08 09:11:00,
2013-01-08 03:26:00,27.5,25.0,30.05,South,187,2.0,4.0,91,0.00,,,0.00,weatherlink.com 1.10,2013-01-08 09:26:00,
2013-01-08 03:41:00,27.0,25.0,30.05,SSW,205,2.0,3.0,91,0.00,,,0.00,weatherlink.com 1.10,2013-01-08 09:41:00,
2013-01-08 03:56:00,26.7,25.0,30.04,South,188,1.0,3.0,92,0.00,,,0.00,weatherlink.com 1.10,2013-01-08 09:56:00,
2013-01-08 04:11:00,26.6,25.0,30.04,South,175,2.0,3.0,92,0.00,,,0.00,weatherlink.com 1.10,2013-01-08 10:11:00,
2013-01-08 04:26:00,26.6,25.0,30.04,SSW,198,2.0,3.0,92,0.00,,,0.00,weatherlink.com 1.10,2013-01-08 10:26:00,
2013-01-08 04:41:00,26.9,25.0,30.04,South,188,4.0,4.0,91,0.00,,,0.00,weatherlink.com 1.10,2013-01-08 10:41:00,
2013-01-08 04:56:00,26.2,24.0,30.04,SSW,196,3.0,4.0,91,0.00,,,0.00,weatherlink.com 1.10,2013-01-08 10:56:00,
2013-01-08 05:12:00,25.7,24.0,30.04,South,186,1.0,4.0,91,0.00,,,0.00,weatherlink.com 1.10,2013-01-08 11:12:00,
2013-01-08 05:27:00,25.2,23.0,30.04,South,171,1.0,3.0,92,0.00,,,0.00,weatherlink.com 1.10,2013-01-08 11:27:00,
2013-01-08 05:42:00,25.5,24.0,30.04,SSE,153,1.0,4.0,92,0.00,,,0.00,weatherlink.com 1.10,2013-01-08 11:42:00,
2013-01-08 05:57:00,25.3,23.0,30.04,South,188,4.0,4.0,91,0.00,,,0.00,weatherlink.com 1.10,2013-01-08 11:57:00,
2013-01-08 06:12:00,25.3,23.0,30.04,South,176,1.0,5.0,92,0.00,,,0.00,weatherlink.com 1.10,2013-01-08 12:12:00,
2013-01-08 06:27:00,24.9,23.0,30.05,South,178,1.0,3.0,92,0.00,,,0.00,weatherlink.com 1.10,2013-01-08 12:27:00,
2013-01-08 06:42:00,25.1,23.0,30.05,South,179,0.0,3.0,92,0.00,,,0.00,weatherlink.com 1.10,2013-01-08 12:42:00,
2013-01-08 06:57:00,24.7,23.0,30.06,South,175,1.0,3.0,92,0.00,,,0.00,weatherlink.com 1.10,2013-01-08 12:57:00,
2013-01-08 07:12:00,24.9,23.0,30.06,South,187,2.0,4.0,92,0.00,,,0.00,weatherlink.com 1.10,2013-01-08 13:12:00,
2013-01-08 07:27:00,25.5,24.0,30.06,South,182,3.0,5.0,92,0.00,,,0.00,weatherlink.com 1.10,2013-01-08 13:27:00,
2013-01-08 07:42:00,25.1,23.0,30.07,South,178,1.0,5.0,91,0.00,,,0.00,weatherlink.com 1.10,2013-01-08 13:42:00,
2013-01-08 07:57:00,25.1,23.0,30.06,SSE,161,2.0,5.0,91,0.00,,,0.00,weatherlink.com 1.10,2013-01-08 13:57:00,
2013-01-08 08:12:00,25.7,24.0,30.06,SSE,159,3.0,6.0,91,0.00,,,0.00,weatherlink.com 1.10,2013-01-08 14:12:00,
2013-01-08 08:27:00,26.2,24.0,30.07,South,186,3.0,8.0,90,0.00,,,0.00,weatherlink.com 1.10,2013-01-08 14:27:00,
2013-01-08 08:42:00,26.4,24.0,30.07,SSW,198,1.0,7.0,89,0.00,,,0.00,weatherlink.com 1.10,2013-01-08 14:42:00,
2013-01-08 08:57:00,26.7,24.0,30.07,SW,219,2.0,6.0,89,0.00,,,0.00,weatherlink.com 1.10,2013-01-08 14:57:00,
2013-01-08 09:12:00,27.1,24.0,30.07,SSE,158,3.0,6.0,88,0.00,,,0.00,weatherlink.com 1.10,2013-01-08 15:12:00,
2013-01-08 09:27:00,27.9,25.0,30.07,South,187,3.0,7.0,88,0.00,,,0.00,weatherlink.com 1.10,2013-01-08 15:27:00,
2013-01-08 09:42:00,28.8,25.0,30.07,SSW,207,4.0,8.0,87,0.00,,,0.00,weatherlink.com 1.10,2013-01-08 15:42:00,
2013-01-08 09:57:00,29.2,26.0,30.07,South,173,4.0,9.0,86,0.00,,,0.00,weatherlink.com 1.10,2013-01-08 15:57:00,
2013-01-08 10:12:00,29.8,26.0,30.07,SSE,162,6.0,9.0,86,0.00,,,0.00,weatherlink.com 1.10,2013-01-08 16:12:00,
2013-01-08 10:27:00,30.4,27.0,30.07,SE,144,2.0,8.0,86,0.00,,,0.00,weatherlink.com 1.10,2013-01-08 16:27:00,
2013-01-08 10:42:00,31.0,27.0,30.06,South,173,4.0,8.0,85,0.00,,,0.00,weatherlink.com 1.10,2013-01-08 16:42:00,
2013-01-08 10:57:00,31.3,27.0,30.06,SSW,193,8.0,10.0,85,0.00,,,0.00,weatherlink.com 1.10,2013-01-08 16:57:00,
2013-01-08 11:12:00,31.5,28.0,30.05,SSE,156,5.0,10.0,85,0.00,,,0.00,weatherlink.com 1.10,2013-01-08 17:12:00,
2013-01-08 11:27:00,32.2,28.0,30.04,SSE,165,5.0,10.0,85,0.00,,,0.00,weatherlink.com 1.10,2013-01-08 17:27:00,
2013-01-08 11:42:00,33.0,29.0,30.03,South,189,8.0,9.0,84,0.00,,,0.00,weatherlink.com 1.10,2013-01-08 17:42:00,
2013-01-08 11:57:00,33.4,29.0,30.03,SSE,167,7.0,10.0,84,0.00,,,0.00,weatherlink.com 1.10,2013-01-08 17:57:00,
2013-01-08 12:12:00,33.3,29.0,30.02,SSE,167,9.0,12.0,84,0.01,,,0.01,weatherlink.com 1.10,2013-01-08 18:12:00,
2013-01-08 12:27:00,33.5,30.0,30.02,SSE,167,9.0,11.0,85,0.01,,,0.01,weatherlink.com 1.10,2013-01-08 18:27:00,
2013-01-08 12:42:00,33.6,30.0,30.01,SE,134,10.0,15.0,85,0.01,,,0.01,weatherlink.com 1.10,2013-01-08 18:42:00,
2013-01-08 12:57:00,33.7,30.0,30.01,SE,142,5.0,12.0,85,0.01,,,0.01,weatherlink.com 1.10,2013-01-08 18:57:00,
2013-01-08 13:12:00,34.1,30.0,30.00,SSE,159,13.0,15.0,84,0.00,,,0.01,weatherlink.com 1.10,2013-01-08 19:12:00,
2013-01-08 13:27:00,34.1,30.0,30.00,SSE,155,5.0,14.0,85,0.01,,,0.02,weatherlink.com 1.10,2013-01-08 19:27:00,
2013-01-08 13:43:00,34.1,30.0,30.00,SSE,164,11.0,14.0,86,0.01,,,0.02,weatherlink.com 1.10,2013-01-08 19:43:00,
2013-01-08 13:58:00,34.2,31.0,29.99,SSE,163,4.0,13.0,86,0.02,,,0.03,weatherlink.com 1.10,2013-01-08 19:58:00,
2013-01-08 14:13:00,34.7,31.0,29.99,South,183,7.0,9.0,86,0.01,,,0.03,weatherlink.com 1.10,2013-01-08 20:13:00,
2013-01-08 14:28:00,34.9,31.0,29.99,East,88,7.0,13.0,86,0.02,,,0.04,weatherlink.com 1.10,2013-01-08 20:28:00,
2013-01-08 14:43:00,35.0,31.0,29.99,South,175,11.0,17.0,85,0.02,,,0.04,weatherlink.com 1.10,2013-01-08 20:43:00,
2013-01-08 14:58:00,35.6,31.0,29.98,South,173,12.0,16.0,84,0.02,,,0.05,weatherlink.com 1.10,2013-01-08 20:58:00,
2013-01-08 15:13:00,35.8,31.0,29.97,SSE,158,10.0,16.0,84,0.02,,,0.05,weatherlink.com 1.10,2013-01-08 21:13:00,
2013-01-08 15:28:00,36.2,32.0,29.97,SE,136,15.0,17.0,83,0.02,,,0.06,weatherlink.com 1.10,2013-01-08 21:28:00,
2013-01-08 15:43:00,36.9,32.0,29.97,SSW,200,6.0,16.0,82,0.03,,,0.07,weatherlink.com 1.10,2013-01-08 21:43:00,
2013-01-08 15:58:00,36.6,32.0,29.97,South,175,2.0,15.0,84,0.03,,,0.08,weatherlink.com 1.10,2013-01-08 21:58:00,
2013-01-08 16:13:00,35.9,32.0,29.97,South,184,10.0,15.0,86,0.04,,,0.09,weatherlink.com 1.10,2013-01-08 22:13:00,
2013-01-08 16:28:00,36.6,32.0,29.96,South,171,11.0,20.0,84,0.04,,,0.10,weatherlink.com 1.10,2013-01-08 22:28:00,
2013-01-08 16:43:00,36.4,32.0,29.95,South,180,11.0,17.0,85,0.04,,,0.11,weatherlink.com 1.10,2013-01-08 22:43:00,
2013-01-08 16:58:00,36.7,32.0,29.95,SE,144,6.0,18.0,84,0.04,,,0.12,weatherlink.com 1.10,2013-01-08 22:58:00,
2013-01-08 17:13:00,36.5,32.0,29.94,South,169,15.0,17.0,85,0.04,,,0.13,weatherlink.com 1.10,2013-01-08 23:13:00,
2013-01-08 17:28:00,36.4,32.0,29.94,South,171,12.0,18.0,85,0.03,,,0.13,weatherlink.com 1.10,2013-01-08 23:28:00,
2013-01-08 17:43:00,36.7,32.0,29.94,SW,227,12.0,19.0,84,0.03,,,0.14,weatherlink.com 1.10,2013-01-08 23:43:00,
2013-01-08 17:58:00,36.9,32.0,29.94,SSW,197,12.0,18.0,83,0.03,,,0.15,weatherlink.com 1.10,2013-01-08 23:58:00,
2013-01-08 18:13:00,36.6,32.0,29.93,SSE,163,11.0,16.0,83,0.02,,,0.15,weatherlink.com 1.10,2013-01-09 00:13:00,
2013-01-08 18:28:00,37.1,32.0,29.94,SSW,199,12.0,21.0,82,0.03,,,0.16,weatherlink.com 1.10,2013-01-09 00:28:00,
2013-01-08 18:43:00,36.7,32.0,29.96,SW,226,9.0,15.0,83,0.02,,,0.16,weatherlink.com 1.10,2013-01-09 00:43:00,
2013-01-08 18:58:00,36.5,32.0,29.95,South,187,15.0,19.0,84,0.01,,,0.16,weatherlink.com 1.10,2013-01-09 00:58:00,
2013-01-08 19:13:00,36.9,32.0,29.95,ENE,75,10.0,18.0,82,0.02,,,0.17,weatherlink.com 1.10,2013-01-09 01:13:00,
2013-01-08 19:28:00,36.1,31.0,29.97,SSE,150,7.0,14.0,83,0.01,,,0.17,weatherlink.com 1.10,2013-01-09 01:28:00,
2013-01-08 19:43:00,35.7,32.0,29.96,ESE,123,4.0,12.0,85,0.01,,,0.17,weatherlink.com 1.10,2013-01-09 01:43:00,
2013-01-08 19:58:00,36.2,32.0,29.96,SW,219,8.0,12.0,84,0.01,,,0.17,weatherlink.com 1.10,2013-01-09 01:58:00,
2013-01-08 20:13:00,36.6,32.0,29.97,East,92,7.0,13.0,84,0.00,,,0.17,weatherlink.com 1.10,2013-01-09 02:13:00,
2013-01-08 20:28:00,36.2,32.0,29.96,South,175,4.0,12.0,85,0.01,,,0.18,weatherlink.com 1.10,2013-01-09 02:28:00,
2013-01-08 20:43:00,36.0,32.0,29.97,SSW,198,6.0,12.0,85,0.01,,,0.18,weatherlink.com 1.10,2013-01-09 02:43:00,
2013-01-08 20:58:00,35.7,32.0,29.96,South,171,5.0,11.0,86,0.01,,,0.18,weatherlink.com 1.10,2013-01-09 02:58:00,
2013-01-08 21:13:00,35.4,32.0,29.96,South,169,7.0,11.0,87,0.01,,,0.18,weatherlink.com 1.10,2013-01-09 03:13:00,
2013-01-08 21:28:00,35.5,32.0,29.96,South,191,6.0,12.0,87,0.00,,,0.18,weatherlink.com 1.10,2013-01-09 03:28:00,
2013-01-08 21:43:00,36.0,32.0,29.95,South,170,10.0,12.0,86,0.00,,,0.18,weatherlink.com 1.10,2013-01-09 03:43:00,
2013-01-08 21:58:00,36.1,32.0,29.95,South,182,5.0,13.0,85,0.00,,,0.18,weatherlink.com 1.10,2013-01-09 03:58:00,
2013-01-08 22:13:00,36.2,32.0,29.94,SSW,209,8.0,12.0,84,0.00,,,0.18,weatherlink.com 1.10,2013-01-09 04:13:00,
2013-01-08 22:28:00,36.0,32.0,29.94,South,171,8.0,12.0,84,0.01,,,0.19,weatherlink.com 1.10,2013-01-09 04:28:00,
2013-01-08 22:43:00,36.0,32.0,29.94,SE,143,4.0,14.0,84,0.01,,,0.19,weatherlink.com 1.10,2013-01-09 04:43:00,
2013-01-08 22:58:00,35.9,32.0,29.93,SW,221,6.0,14.0,84,0.01,,,0.19,weatherlink.com 1.10,2013-01-09 04:58:00,
2013-01-08 23:13:00,35.9,32.0,29.94,SSW,213,7.0,15.0,84,0.01,,,0.19,weatherlink.com 1.10,2013-01-09 05:13:00,
2013-01-08 23:28:00,36.0,31.0,29.95,SSW,208,7.0,11.0,83,0.00,,,0.19,weatherlink.com 1.10,2013-01-09 05:28:00,
2013-01-08 23:43:00,35.5,31.0,29.95,SW,228,3.0,11.0,84,0.00,,,0.19,weatherlink.com 1.10,2013-01-09 05:43:00,
2013-01-08 23:58:00,35.4,31.0,29.95,SSW,205,3.0,8.0,84,0.00,,,0.19,weatherlink.com 1.10,2013-01-09 05:58:00,